createdAt,value
2018-06-04T00:02:19.118Z,15.30
2018-06-04T00:04:47.644Z,15.30
2018-06-04T00:07:16.141Z,15.40
2018-06-04T00:09:44.644Z,15.40
2018-06-04T00:12:13.159Z,15.40
2018-06-04T00:17:09.866Z,15.50
2018-06-04T00:19:38.329Z,15.50
2018-06-04T00:22:06.854Z,15.50
2018-06-04T00:24:35.374Z,15.60
2018-06-04T00:29:32.161Z,15.60
2018-06-04T00:32:00.674Z,15.60
2018-06-04T00:34:29.124Z,15.70
2018-06-04T00:36:57.635Z,15.70
2018-06-04T00:39:26.132Z,15.70
2018-06-04T00:41:54.652Z,15.80
2018-06-04T00:44:23.173Z,15.80
2018-06-04T00:46:51.656Z,15.80
2018-06-04T00:49:20.256Z,15.80
2018-06-04T00:51:48.734Z,15.80
2018-06-04T00:54:17.240Z,15.90
2018-06-04T00:56:45.731Z,15.90
2018-06-04T00:59:14.307Z,15.90
2018-06-04T01:01:42.769Z,15.90
2018-06-04T01:04:11.265Z,15.90
2018-06-04T01:06:39.733Z,15.90
2018-06-04T01:09:08.507Z,15.90
2018-06-04T01:11:37.504Z,15.90
2018-06-04T01:14:05.996Z,15.90
2018-06-04T01:16:34.537Z,15.80
2018-06-04T01:19:03.053Z,15.80
2018-06-04T01:21:31.526Z,15.80
2018-06-04T01:24:00.072Z,15.80
2018-06-04T01:26:28.526Z,15.80
2018-06-04T01:28:57.016Z,15.80
2018-06-04T01:31:25.564Z,15.80
2018-06-04T01:33:54.097Z,15.80
2018-06-04T01:36:22.589Z,15.80
2018-06-04T01:38:51.137Z,15.80
2018-06-04T01:41:19.624Z,15.80
2018-06-04T01:43:48.156Z,15.90
2018-06-04T01:46:16.670Z,15.90
2018-06-04T01:48:45.133Z,15.90
2018-06-04T01:51:13.645Z,15.90
2018-06-04T01:53:42.237Z,15.90
2018-06-04T01:56:10.715Z,15.90
2018-06-04T01:58:39.226Z,15.90
2018-06-04T02:01:07.701Z,15.90
2018-06-04T02:06:04.436Z,15.90
2018-06-04T02:08:32.945Z,15.90
2018-06-04T02:11:01.406Z,15.90
2018-06-04T02:13:30.002Z,15.90
2018-06-04T02:15:58.501Z,15.90
2018-06-04T02:18:27.000Z,15.90
2018-06-04T02:20:55.507Z,15.90
2018-06-04T02:23:24.077Z,15.90
2018-06-04T02:25:52.677Z,15.90
2018-06-04T02:28:21.271Z,15.90
2018-06-04T02:30:49.767Z,15.90
2018-06-04T02:33:18.304Z,15.90
2018-06-04T02:35:46.790Z,15.90
2018-06-04T02:38:15.325Z,15.90
2018-06-04T02:40:43.812Z,15.90
2018-06-04T02:43:12.311Z,15.90
2018-06-04T02:48:09.028Z,15.90
2018-06-04T02:50:37.577Z,15.90
2018-06-04T02:53:06.095Z,15.90
2018-06-04T02:55:34.585Z,15.90
2018-06-04T02:58:03.090Z,15.90
2018-06-04T03:00:31.623Z,15.90
2018-06-04T03:03:00.179Z,15.90
2018-06-04T03:05:28.633Z,15.90
2018-06-04T03:07:57.205Z,15.90
2018-06-04T03:10:25.695Z,15.90
2018-06-04T03:12:54.305Z,15.90
2018-06-04T03:15:22.852Z,15.90
2018-06-04T03:17:51.371Z,15.90
2018-06-04T03:20:19.929Z,15.90
2018-06-04T03:22:48.456Z,16.00
2018-06-04T03:25:16.995Z,16.00
2018-06-04T03:27:45.579Z,16.00
2018-06-04T03:30:14.092Z,16.00
2018-06-04T03:32:42.695Z,16.00
2018-06-04T03:35:11.220Z,16.00
2018-06-04T03:37:39.739Z,16.00
2018-06-04T03:42:36.467Z,16.00
2018-06-04T03:45:05.061Z,16.00
2018-06-04T03:47:33.649Z,16.00
2018-06-04T03:50:02.217Z,16.00
2018-06-04T03:55:05.426Z,16.00
2018-06-04T03:57:33.901Z,16.00
2018-06-04T04:00:02.404Z,16.10
2018-06-04T04:02:30.933Z,16.10
2018-06-04T04:04:59.459Z,16.10
2018-06-04T04:07:27.925Z,16.10
2018-06-04T04:09:56.449Z,16.10
2018-06-04T04:12:24.986Z,16.10
2018-06-04T04:14:53.441Z,16.10
2018-06-04T04:17:21.960Z,16.10
2018-06-04T04:19:50.454Z,16.10
2018-06-04T04:22:18.933Z,16.10
2018-06-04T04:24:47.460Z,16.10
2018-06-04T04:27:15.922Z,16.20
2018-06-04T04:32:13.312Z,16.20
2018-06-04T04:34:41.819Z,16.20
2018-06-04T04:37:10.269Z,16.20
2018-06-04T04:39:38.769Z,16.20
2018-06-04T04:42:07.252Z,16.30
2018-06-04T04:44:35.772Z,16.30
2018-06-04T04:47:04.272Z,16.30
2018-06-04T04:49:32.781Z,16.30
2018-06-04T04:52:01.259Z,16.30
2018-06-04T04:54:29.836Z,16.30
2018-06-04T04:56:58.329Z,16.40
2018-06-04T04:59:26.871Z,16.40
2018-06-04T05:01:55.407Z,16.40
2018-06-04T05:04:23.941Z,16.40
2018-06-04T05:06:52.479Z,16.40
2018-06-04T05:09:20.992Z,16.40
2018-06-04T05:11:49.514Z,16.40
2018-06-04T05:16:46.185Z,16.30
2018-06-04T05:19:14.660Z,16.30
2018-06-04T05:24:11.339Z,16.40
2018-06-04T05:26:39.843Z,16.40
2018-06-04T05:29:08.300Z,16.40
2018-06-04T05:31:36.833Z,16.40
2018-06-04T05:34:05.306Z,16.40
2018-06-04T05:36:33.850Z,16.40
2018-06-04T05:39:02.405Z,16.40
2018-06-04T05:41:30.878Z,16.30
2018-06-04T05:43:59.415Z,16.40
2018-06-04T05:46:27.916Z,16.40
2018-06-04T05:48:56.411Z,16.50
2018-06-04T05:51:24.952Z,16.50
2018-06-04T05:53:59.729Z,16.50
2018-06-04T05:56:28.240Z,16.60
2018-06-04T05:58:56.774Z,16.60
2018-06-04T06:01:25.347Z,16.70
2018-06-04T06:03:53.934Z,16.80
2018-06-04T06:06:22.507Z,16.80
2018-06-04T06:08:50.994Z,16.90
2018-06-04T06:11:19.553Z,17.00
2018-06-04T06:13:48.099Z,17.00
2018-06-04T06:16:16.702Z,17.10
2018-06-04T06:18:45.238Z,17.30
2018-06-04T06:21:13.827Z,17.50
2018-06-04T06:23:42.404Z,17.50
2018-06-04T06:26:10.971Z,17.60
2018-06-04T06:28:39.477Z,17.70
2018-06-04T06:31:08.081Z,17.80
2018-06-04T06:33:36.605Z,17.90
2018-06-04T06:36:05.223Z,18.00
2018-06-04T06:38:33.736Z,18.10
2018-06-04T06:41:02.278Z,18.10
2018-06-04T06:43:30.824Z,18.20
2018-06-04T06:45:59.333Z,18.20
2018-06-04T06:48:27.909Z,18.10
2018-06-04T06:50:56.518Z,18.00
2018-06-04T06:53:25.071Z,17.90
2018-06-04T06:55:53.621Z,17.80
2018-06-04T06:58:22.168Z,17.70
2018-06-04T07:00:50.715Z,17.70
2018-06-04T07:03:19.296Z,17.60
2018-06-04T07:05:47.865Z,17.60
2018-06-04T07:08:16.382Z,17.60
2018-06-04T07:10:44.868Z,17.50
2018-06-04T07:13:13.425Z,17.50
2018-06-04T07:15:41.932Z,17.50
2018-06-04T07:18:10.451Z,17.40
2018-06-04T07:20:39.025Z,17.50
2018-06-04T07:23:07.566Z,17.50
2018-06-04T07:25:36.126Z,17.50
2018-06-04T07:28:04.681Z,17.50
2018-06-04T07:30:33.217Z,17.50
2018-06-04T07:35:30.013Z,17.60
2018-06-04T07:37:58.521Z,17.70
2018-06-04T07:40:27.062Z,17.70
2018-06-04T07:42:55.644Z,17.80
2018-06-04T07:45:24.205Z,17.80
2018-06-04T07:47:52.723Z,17.80
2018-06-04T07:50:21.295Z,17.80
2018-06-04T07:52:49.853Z,17.70
2018-06-04T07:57:46.690Z,17.60
2018-06-04T08:00:15.264Z,17.50
2018-06-04T08:02:43.765Z,17.50
2018-06-04T08:05:12.322Z,17.50
2018-06-04T08:07:40.835Z,17.40
2018-06-04T08:10:09.482Z,17.30
2018-06-04T08:15:06.213Z,17.20
2018-06-04T08:17:34.705Z,17.30
2018-06-04T08:20:03.307Z,17.30
2018-06-04T08:22:31.878Z,17.30
2018-06-04T08:25:00.370Z,17.40
2018-06-04T08:27:28.939Z,17.40
2018-06-04T08:29:57.519Z,17.30
2018-06-04T08:32:26.124Z,17.30
2018-06-04T08:34:54.674Z,17.40
2018-06-04T08:37:23.241Z,17.40
2018-06-04T08:39:51.822Z,17.30
2018-06-04T08:44:48.537Z,17.30
2018-06-04T08:47:17.138Z,17.40
2018-06-04T08:49:45.758Z,17.40
2018-06-04T08:52:14.289Z,17.50
2018-06-04T08:54:42.809Z,17.50
2018-06-04T08:57:11.342Z,17.60
2018-06-04T08:59:39.847Z,17.70
2018-06-04T09:02:08.381Z,17.70
2018-06-04T09:04:36.886Z,17.80
2018-06-04T09:07:05.501Z,17.90
2018-06-04T09:09:34.055Z,18.10
2018-06-04T09:12:02.660Z,18.20
2018-06-04T09:14:31.217Z,18.10
2018-06-04T09:16:59.720Z,18.10
2018-06-04T09:19:28.271Z,18.00
2018-06-04T09:21:56.869Z,18.00
2018-06-04T09:24:25.359Z,18.10
2018-06-04T09:26:53.874Z,18.10
2018-06-04T09:29:22.392Z,18.10
2018-06-04T09:31:50.947Z,18.10
2018-06-04T09:34:19.453Z,18.20
2018-06-04T09:36:47.989Z,18.20
2018-06-04T09:39:16.527Z,18.10
2018-06-04T09:41:45.102Z,18.20
2018-06-04T09:44:13.641Z,18.20
2018-06-04T09:46:42.234Z,18.30
2018-06-04T09:49:10.770Z,18.40
2018-06-04T09:54:07.542Z,18.30
2018-06-04T09:56:36.048Z,18.20
2018-06-04T09:59:04.594Z,18.10
2018-06-04T10:04:02.025Z,17.90
2018-06-04T10:06:30.553Z,17.90
2018-06-04T10:08:59.062Z,17.90
2018-06-04T10:11:27.676Z,18.00
2018-06-04T10:13:56.211Z,18.20
2018-06-04T10:16:24.714Z,18.40
2018-06-04T10:18:53.251Z,18.40
2018-06-04T10:21:21.881Z,18.20
2018-06-04T10:23:50.395Z,18.20
2018-06-04T10:26:19.023Z,18.20
2018-06-04T10:28:47.554Z,18.20
2018-06-04T10:31:16.112Z,18.30
2018-06-04T10:33:44.644Z,18.20
2018-06-04T10:36:13.165Z,18.40
2018-06-04T10:38:41.779Z,18.60
2018-06-04T10:41:10.383Z,18.80
2018-06-04T10:43:38.914Z,18.80
2018-06-04T10:46:07.420Z,18.70
2018-06-04T10:48:35.979Z,18.60
2018-06-04T10:51:04.497Z,18.50
2018-06-04T10:53:33.035Z,18.50
2018-06-04T10:56:01.606Z,18.30
2018-06-04T11:00:58.364Z,18.10
2018-06-04T11:03:26.915Z,18.00
2018-06-04T11:05:55.492Z,17.80
2018-06-04T11:08:24.024Z,17.80
2018-06-04T11:10:52.724Z,17.70
2018-06-04T11:13:21.243Z,17.60
2018-06-04T11:15:50.024Z,17.50
2018-06-04T11:18:18.637Z,17.50
2018-06-04T11:20:47.149Z,17.50
2018-06-04T11:23:15.730Z,17.50
2018-06-04T11:25:44.354Z,17.60
2018-06-04T11:28:12.838Z,17.60
2018-06-04T11:30:41.304Z,17.70
2018-06-04T11:33:09.864Z,17.90
2018-06-04T11:35:38.352Z,17.90
2018-06-04T11:38:06.844Z,17.90
2018-06-04T11:40:35.447Z,17.90
2018-06-04T11:43:03.958Z,17.90
2018-06-04T11:45:32.474Z,17.90
2018-06-04T11:48:00.964Z,17.90
2018-06-04T11:52:57.674Z,17.90
2018-06-04T11:55:26.120Z,18.10
2018-06-04T11:57:54.627Z,18.20
2018-06-04T12:00:23.135Z,18.20
2018-06-04T12:02:51.636Z,18.20
2018-06-04T12:05:20.153Z,18.30
2018-06-04T12:07:48.627Z,18.30
2018-06-04T12:12:45.352Z,18.20
2018-06-04T12:15:13.836Z,18.10
2018-06-04T12:17:42.302Z,18.10
2018-06-04T12:20:10.849Z,18.10
2018-06-04T12:22:39.332Z,18.10
2018-06-04T12:25:07.840Z,18.00
2018-06-04T12:27:36.381Z,18.00
2018-06-04T12:30:05.121Z,18.00
2018-06-04T12:32:33.568Z,17.90
2018-06-04T12:35:02.115Z,17.90
2018-06-04T12:37:30.621Z,17.90
2018-06-04T12:39:59.071Z,17.80
2018-06-04T12:42:27.595Z,17.70
2018-06-04T12:44:56.144Z,17.60
2018-06-04T12:47:24.641Z,17.50
2018-06-04T12:49:53.108Z,17.50
2018-06-04T12:52:21.622Z,17.50
2018-06-04T12:54:50.135Z,17.50
2018-06-04T12:57:18.646Z,17.50
2018-06-04T12:59:47.139Z,17.60
2018-06-04T13:02:15.668Z,17.80
2018-06-04T13:04:44.195Z,18.00
2018-06-04T13:07:12.680Z,18.20
2018-06-04T13:09:41.200Z,18.30
2018-06-04T13:12:09.737Z,18.30
2018-06-04T13:14:38.266Z,18.40
2018-06-04T13:17:06.776Z,18.40
2018-06-04T13:19:35.276Z,18.40
2018-06-04T13:22:03.808Z,18.30
2018-06-04T13:24:32.360Z,18.30
2018-06-04T13:27:00.866Z,18.30
2018-06-04T13:29:29.377Z,18.20
2018-06-04T13:31:57.837Z,18.10
2018-06-04T13:34:26.345Z,18.20
2018-06-04T13:36:54.812Z,18.20
2018-06-04T13:39:23.381Z,18.20
2018-06-04T13:41:51.829Z,18.30
2018-06-04T13:44:20.326Z,18.30
2018-06-04T13:49:17.064Z,18.20
2018-06-04T13:51:45.548Z,18.10
2018-06-04T13:54:14.051Z,18.10
2018-06-04T13:56:42.523Z,18.00
2018-06-04T13:59:11.016Z,18.00
2018-06-04T14:01:39.548Z,18.00
2018-06-04T14:04:08.043Z,18.00
2018-06-04T14:06:36.535Z,18.00
2018-06-04T14:09:07.535Z,18.10
2018-06-04T14:11:36.128Z,18.10
2018-06-04T14:14:04.596Z,18.10
2018-06-04T14:16:33.117Z,18.20
2018-06-04T14:19:01.565Z,18.30
2018-06-04T14:21:30.048Z,18.30
2018-06-04T14:23:58.588Z,18.20
2018-06-04T14:26:27.043Z,18.10
2018-06-04T14:28:55.538Z,18.10
2018-06-04T14:31:24.063Z,18.10
2018-06-04T14:33:52.524Z,18.20
2018-06-04T14:38:49.212Z,18.20
2018-06-04T14:41:17.752Z,18.20
2018-06-04T14:43:46.298Z,18.10
2018-06-04T14:46:14.804Z,18.00
2018-06-04T14:48:43.336Z,18.00
2018-06-04T14:51:11.810Z,18.00
2018-06-04T14:53:40.393Z,18.00
2018-06-04T14:56:08.852Z,17.90
2018-06-04T14:58:37.599Z,17.80
2018-06-04T15:03:46.401Z,17.60
2018-06-04T15:06:14.875Z,17.60
2018-06-04T15:08:43.360Z,17.60
2018-06-04T15:13:45.957Z,17.70
2018-06-04T15:16:22.900Z,17.60
2018-06-04T15:18:57.404Z,17.50
2018-06-04T15:24:03.275Z,17.30
2018-06-04T15:26:38.185Z,17.30
2018-06-04T15:29:11.171Z,17.20
2018-06-04T15:31:42.410Z,17.30
2018-06-04T15:36:57.241Z,17.20
2018-06-04T15:42:12.659Z,17.30
2018-06-04T15:44:41.235Z,17.40
2018-06-04T15:47:09.840Z,17.40
2018-06-04T15:52:06.789Z,17.40
2018-06-04T15:54:35.368Z,17.30
2018-06-04T15:57:03.952Z,17.30
2018-06-04T15:59:32.512Z,17.30
2018-06-04T16:02:01.034Z,17.30
2018-06-04T16:04:29.610Z,17.30
2018-06-04T16:06:58.198Z,17.30
2018-06-04T16:09:26.747Z,17.40
2018-06-04T16:11:55.354Z,17.50
2018-06-04T16:14:23.919Z,17.50
2018-06-04T16:16:52.546Z,17.50
2018-06-04T16:21:49.515Z,17.50
2018-06-04T16:24:18.132Z,17.50
2018-06-04T16:26:46.679Z,17.60
2018-06-04T16:31:43.512Z,17.60
2018-06-04T16:34:12.080Z,17.60
2018-06-04T16:36:40.638Z,17.60
2018-06-04T16:39:09.907Z,17.50
2018-06-04T16:41:38.544Z,17.50
2018-06-04T16:44:07.129Z,17.40
2018-06-04T16:46:35.712Z,17.30
2018-06-04T16:49:04.297Z,17.30
2018-06-04T16:51:32.857Z,17.20
2018-06-04T16:54:01.453Z,17.20
2018-06-04T16:56:29.997Z,17.20
2018-06-04T17:01:26.793Z,17.20
2018-06-04T17:03:55.372Z,17.30
2018-06-04T17:06:23.937Z,17.30
2018-06-04T17:08:52.521Z,17.30
2018-06-04T17:13:49.299Z,17.30
2018-06-04T17:16:17.878Z,17.20
2018-06-04T17:18:46.416Z,17.20
2018-06-04T17:21:15.001Z,17.20
2018-06-04T17:23:43.546Z,17.20
2018-06-04T17:26:12.106Z,17.20
2018-06-04T17:28:40.682Z,17.20
2018-06-04T17:31:09.251Z,17.20
2018-06-04T17:33:37.800Z,17.20
2018-06-04T17:36:06.541Z,17.20
2018-06-04T17:38:35.089Z,17.20
2018-06-04T17:41:03.657Z,17.20
2018-06-04T17:43:32.272Z,17.20
2018-06-04T17:46:00.805Z,17.20
2018-06-04T17:48:29.407Z,17.20
2018-06-04T17:50:57.993Z,17.10
2018-06-04T17:53:26.571Z,17.10
2018-06-04T17:55:55.109Z,17.10
2018-06-04T17:58:23.680Z,17.10
2018-06-04T18:00:52.201Z,17.00
2018-06-04T18:03:20.796Z,17.10
2018-06-04T18:05:49.433Z,17.00
2018-06-04T18:08:18.013Z,17.00
2018-06-04T18:10:46.573Z,17.00
2018-06-04T18:13:15.143Z,16.90
2018-06-04T18:15:43.712Z,16.90
2018-06-04T18:18:12.258Z,16.80
2018-06-04T18:23:09.114Z,16.80
2018-06-04T18:25:37.713Z,16.70
2018-06-04T18:30:34.530Z,16.60
2018-06-04T18:33:03.199Z,16.50
2018-06-04T18:35:31.745Z,16.50
2018-06-04T18:38:00.337Z,16.40
2018-06-04T18:40:28.868Z,16.30
2018-06-04T18:42:57.452Z,16.30
2018-06-04T18:45:26.037Z,16.30
2018-06-04T18:47:54.640Z,16.30
2018-06-04T18:50:23.259Z,16.30
2018-06-04T18:52:51.821Z,16.30
2018-06-04T18:55:20.458Z,16.20
2018-06-04T18:57:49.030Z,16.20
2018-06-04T19:00:17.586Z,16.30
2018-06-04T19:02:46.168Z,16.20
2018-06-04T19:07:42.973Z,16.20
2018-06-04T19:10:11.569Z,16.30
2018-06-04T19:12:40.123Z,16.30
2018-06-04T19:15:09.029Z,16.30
2018-06-04T19:17:37.596Z,16.20
2018-06-04T19:20:06.253Z,16.20
2018-06-04T19:22:34.822Z,16.10
2018-06-04T19:25:04.284Z,16.10
2018-06-04T19:27:32.861Z,16.10
2018-06-04T19:30:01.478Z,16.10
2018-06-04T19:32:30.108Z,16.10
2018-06-04T19:34:58.671Z,16.10
2018-06-04T19:37:27.243Z,16.10
2018-06-04T19:39:55.846Z,16.10
2018-06-04T19:44:52.647Z,16.10
2018-06-04T19:47:21.246Z,16.10
2018-06-04T19:49:49.822Z,16.00
2018-06-04T19:52:18.377Z,16.00
2018-06-04T19:57:15.247Z,16.00
2018-06-04T19:59:43.813Z,16.00
2018-06-04T20:04:40.652Z,15.90
2018-06-04T20:07:09.179Z,15.90
2018-06-04T20:09:37.750Z,16.00
2018-06-04T20:12:06.309Z,16.00
2018-06-04T20:14:34.900Z,16.00
2018-06-04T20:17:03.480Z,16.00
2018-06-04T20:19:32.068Z,15.90
2018-06-04T20:24:28.915Z,16.00
2018-06-04T20:26:57.449Z,16.00
2018-06-04T20:29:26.038Z,15.90
2018-06-04T20:31:54.612Z,16.00
2018-06-04T20:34:23.139Z,16.00
2018-06-04T20:36:51.729Z,16.00
2018-06-04T20:39:20.265Z,16.00
2018-06-04T20:41:48.832Z,16.00
2018-06-04T20:44:17.411Z,16.00
2018-06-04T20:49:14.299Z,16.00
2018-06-04T20:51:42.831Z,16.00
2018-06-04T20:54:11.421Z,16.00
2018-06-04T20:56:40.042Z,16.00
2018-06-04T20:59:09.138Z,16.00
2018-06-04T21:01:37.677Z,16.00
2018-06-04T21:04:06.292Z,16.00
2018-06-04T21:11:33.142Z,16.00
2018-06-04T21:14:01.777Z,16.10
2018-06-04T21:16:30.378Z,16.10
2018-06-04T21:18:58.936Z,16.10
2018-06-04T21:21:27.625Z,16.10
2018-06-04T21:23:56.204Z,16.10
2018-06-04T21:26:24.750Z,16.00
2018-06-04T21:28:53.313Z,16.00
2018-06-04T21:31:21.891Z,16.00
2018-06-04T21:33:50.465Z,16.00
2018-06-04T21:36:18.983Z,16.00
2018-06-04T21:38:47.606Z,15.90
2018-06-04T21:41:16.151Z,15.90
2018-06-04T21:43:44.677Z,16.00
2018-06-04T21:46:13.276Z,15.90
2018-06-04T21:48:48.037Z,15.90
2018-06-04T21:51:16.755Z,15.90
2018-06-04T21:56:14.351Z,15.90
2018-06-04T21:58:42.884Z,15.90
2018-06-04T22:01:11.503Z,15.90
2018-06-04T22:03:40.972Z,15.80
2018-06-04T22:06:09.649Z,15.80
2018-06-04T22:08:38.334Z,15.80
2018-06-04T22:11:06.977Z,15.80
2018-06-04T22:16:03.833Z,15.80
2018-06-04T22:18:32.453Z,15.80
2018-06-04T22:21:01.065Z,15.80
2018-06-04T22:23:29.709Z,15.80
2018-06-04T22:25:58.278Z,15.80
2018-06-04T22:28:26.828Z,15.70
2018-06-04T22:30:55.483Z,15.70
2018-06-04T22:33:24.023Z,15.70
2018-06-04T22:35:52.623Z,15.70
2018-06-04T22:38:22.172Z,15.70
2018-06-04T22:40:50.933Z,15.60
2018-06-04T22:43:19.468Z,15.60
2018-06-04T22:45:48.538Z,15.60
2018-06-04T22:48:18.653Z,15.60
2018-06-04T22:50:47.481Z,15.60
2018-06-04T22:58:13.220Z,15.50
2018-06-04T23:00:41.785Z,15.50
2018-06-04T23:03:10.805Z,15.50
2018-06-04T23:05:39.559Z,15.60
2018-06-04T23:08:08.207Z,15.50
2018-06-04T23:13:05.477Z,15.60
2018-06-04T23:15:34.056Z,15.60
2018-06-04T23:18:02.836Z,15.60
2018-06-04T23:20:31.744Z,15.60
2018-06-04T23:23:00.362Z,15.60
2018-06-04T23:25:29.202Z,15.60
2018-06-04T23:27:59.626Z,15.60
2018-06-04T23:30:28.209Z,15.70
2018-06-04T23:32:56.789Z,15.60
2018-06-04T23:35:25.361Z,15.60
2018-06-04T23:37:53.988Z,15.60
2018-06-04T23:40:22.518Z,15.50
2018-06-04T23:42:51.111Z,15.50
2018-06-04T23:45:19.619Z,15.40
2018-06-04T23:47:48.226Z,15.40
2018-06-04T23:50:19.703Z,15.40
2018-06-04T23:52:48.290Z,15.40
2018-06-04T23:55:16.846Z,15.40
2018-06-04T23:57:45.376Z,15.30
